Time;durP1;ratioP1;P1;durP2;ratioP2;P2;SDS_P1;SDS_P2;PMS_P1;PMS_P2;Temp;Humidity;BMP_temperature;BMP_pressure;BME280_temperature;BME280_humidity;BME280_pressure;Samples;Min_cycle;Max_cycle;Signal;HPM_P1;HPM_P2
2022/04/02 00:01:57;;;;;;;1.73;1.63;;;2.40;99.90;;;;;;5007396;28;20049;-72
2022/04/02 00:04:23;;;;;;;3.15;2.10;;;2.40;99.90;;;;;;5010122;28;20918;-73
2022/04/02 00:06:49;;;;;;;2.65;1.80;;;2.40;99.90;;;;;;4992965;28;20049;-73
2022/04/02 00:09:14;;;;;;;7.30;2.08;;;2.40;99.90;;;;;;5012415;28;20073;-73
2022/04/02 00:11:40;;;;;;;4.47;1.90;;;2.30;99.90;;;;;;5012918;28;20569;-72
2022/04/02 00:14:06;;;;;;;4.28;2.13;;;2.40;99.90;;;;;;4994042;28;20045;-72
2022/04/02 00:16:31;;;;;;;2.55;1.90;;;2.30;99.90;;;;;;4995277;28;20164;-72
2022/04/02 00:18:57;;;;;;;8.85;2.25;;;2.40;99.90;;;;;;4995666;28;20100;-72
2022/04/02 00:21:22;;;;;;;2.83;2.33;;;2.30;99.90;;;;;;4993622;28;20041;-73
2022/04/02 00:23:48;;;;;;;3.20;1.92;;;2.40;99.90;;;;;;5014449;28;20045;-72
2022/04/02 00:26:21;;;;;;;2.30;1.73;;;2.40;99.90;;;;;;5017134;28;20049;-72
2022/04/02 00:28:48;;;;;;;2.97;1.73;;;2.40;99.90;;;;;;5021663;28;20084;-72
2022/04/02 00:31:15;;;;;;;2.50;2.30;;;2.40;99.90;;;;;;5037978;28;20075;-72
2022/04/02 00:33:43;;;;;;;4.55;1.98;;;2.40;99.90;;;;;;5037863;28;20796;-72
2022/04/02 00:36:10;;;;;;;2.65;2.22;;;2.30;99.90;;;;;;5037139;28;20467;-72
2022/04/02 00:38:37;;;;;;;4.25;2.28;;;2.30;99.90;;;;;;5038796;28;20041;-72
2022/04/02 00:41:03;;;;;;;2.55;2.35;;;2.40;99.90;;;;;;5010567;28;20060;-72
2022/04/02 00:43:31;;;;;;;4.22;2.08;;;2.30;99.90;;;;;;5017778;28;20053;-72
2022/04/02 00:46:00;;;;;;;2.17;1.52;;;2.30;99.90;;;;;;5017666;28;20041;-72
2022/04/02 00:48:27;;;;;;;1.95;1.65;;;2.30;99.90;;;;;;5017641;28;20085;-72
2022/04/02 00:50:57;;;;;;;4.40;2.13;;;2.30;99.90;;;;;;5017458;28;20084;-72
2022/04/02 00:53:24;;;;;;;2.00;1.90;;;2.30;99.90;;;;;;5000478;28;20045;-73
2022/04/02 00:55:50;;;;;;;6.65;2.33;;;2.30;99.90;;;;;;5000532;28;20291;-72
2022/04/02 00:58:17;;;;;;;3.95;1.70;;;2.30;99.90;;;;;;5019047;28;20682;-72
2022/04/02 01:00:43;;;;;;;3.13;1.90;;;2.30;99.90;;;;;;5000809;28;20042;-72
2022/04/02 01:03:11;;;;;;;2.30;1.83;;;2.30;99.90;;;;;;5017416;28;20748;-72
2022/04/02 01:05:38;;;;;;;3.50;2.25;;;2.30;99.90;;;;;;5018714;28;20076;-72
2022/04/02 01:08:05;;;;;;;4.78;2.25;;;2.20;99.90;;;;;;5018285;28;20080;-72
2022/04/02 01:10:36;;;;;;;4.00;2.30;;;2.20;99.90;;;;;;5017274;28;20053;-71
2022/04/02 01:13:02;;;;;;;2.17;1.40;;;2.20;99.90;;;;;;5018344;28;20049;-72
2022/04/02 01:15:28;;;;;;;4.47;1.77;;;2.20;99.90;;;;;;5018625;28;20083;-72
2022/04/02 01:17:54;;;;;;;3.25;2.95;;;2.20;99.90;;;;;;5018024;28;20120;-73
2022/04/02 01:20:20;;;;;;;3.17;1.63;;;2.20;99.90;;;;;;5018421;28;20081;-72
2022/04/02 01:22:48;;;;;;;3.20;2.05;;;2.20;99.90;;;;;;5018655;28;20071;-73
2022/04/02 01:25:15;;;;;;;3.92;2.05;;;2.20;99.90;;;;;;5017611;28;20146;-72
2022/04/02 01:27:41;;;;;;;3.30;2.15;;;2.10;99.90;;;;;;5000515;28;20050;-73
2022/04/02 01:30:08;;;;;;;1.98;1.88;;;2.20;99.90;;;;;;5014674;28;20092;-72
2022/04/02 01:32:33;;;;;;;3.63;2.10;;;2.10;99.90;;;;;;5038274;28;20443;-72
2022/04/02 01:34:59;;;;;;;3.60;2.47;;;2.10;99.90;;;;;;5038240;28;20045;-72
2022/04/02 01:37:25;;;;;;;5.93;3.13;;;2.10;99.90;;;;;;5018782;28;20043;-72
2022/04/02 01:39:51;;;;;;;3.47;2.05;;;2.20;99.90;;;;;;5020481;28;20045;-71
2022/04/02 01:42:20;;;;;;;2.10;1.90;;;2.20;99.90;;;;;;4999665;28;20096;-73
2022/04/02 01:44:51;;;;;;;5.53;2.40;;;2.10;99.90;;;;;;4980008;28;20093;-72
2022/04/02 01:47:18;;;;;;;3.00;2.13;;;2.10;99.90;;;;;;4980206;28;20053;-72
2022/04/02 01:49:43;;;;;;;2.17;1.95;;;2.10;99.90;;;;;;5008453;28;20057;-72
2022/04/02 01:52:09;;;;;;;5.07;2.22;;;2.10;99.90;;;;;;4985515;28;20053;-72
2022/04/02 01:54:34;;;;;;;2.65;2.40;;;2.10;99.90;;;;;;5017337;28;20041;-72
2022/04/02 01:57:01;;;;;;;2.90;2.30;;;2.10;99.90;;;;;;4999830;28;20104;-73
2022/04/02 01:59:26;;;;;;;3.15;2.22;;;2.10;99.90;;;;;;5017406;28;20045;-73
2022/04/02 02:01:52;;;;;;;2.97;2.10;;;2.10;99.90;;;;;;5016577;28;20386;-72
2022/04/02 02:04:18;;;;;;;3.63;2.33;;;2.10;99.90;;;;;;5017663;28;20041;-72
2022/04/02 02:06:45;;;;;;;6.60;3.65;;;2.10;99.90;;;;;;4998853;28;20096;-72
2022/04/02 02:09:10;;;;;;;2.30;2.03;;;2.10;99.90;;;;;;5021709;28;20106;-72
2022/04/02 02:11:36;;;;;;;3.90;2.67;;;2.00;99.90;;;;;;5019119;28;20053;-72
2022/04/02 02:14:02;;;;;;;4.55;2.53;;;2.10;99.90;;;;;;5036552;28;20489;-72
2022/04/02 02:16:27;;;;;;;2.35;1.77;;;2.10;99.90;;;;;;5034060;28;20048;-71
2022/04/02 02:18:53;;;;;;;3.25;2.10;;;2.10;99.90;;;;;;4982498;28;20048;-72
2022/04/02 02:21:19;;;;;;;2.83;2.08;;;2.10;99.90;;;;;;4996559;28;20195;-72
2022/04/02 02:23:45;;;;;;;4.13;1.80;;;2.10;99.90;;;;;;4998901;28;20131;-72
2022/04/02 02:26:10;;;;;;;4.20;2.13;;;2.10;99.90;;;;;;5016718;28;20136;-72
2022/04/02 02:28:36;;;;;;;4.10;2.47;;;2.10;99.90;;;;;;5000750;28;20085;-72
2022/04/02 02:31:02;;;;;;;4.88;2.88;;;2.10;99.90;;;;;;5015110;28;20519;-72
2022/04/02 02:36:11;;;;;;;2.33;1.83;;;2.10;99.90;;;;;;5000451;28;20231;-72
2022/04/02 02:38:37;;;;;;;2.33;1.60;;;2.10;99.90;;;;;;4996659;28;20048;-72
2022/04/02 02:41:03;;;;;;;5.90;2.10;;;2.10;99.90;;;;;;5036045;28;20084;-73
2022/04/02 02:43:29;;;;;;;2.40;1.67;;;2.10;99.90;;;;;;5028500;28;20168;-72
2022/04/02 02:45:54;;;;;;;3.53;2.10;;;2.10;99.90;;;;;;5036116;28;20098;-72
2022/04/02 02:48:21;;;;;;;3.85;2.08;;;2.10;99.90;;;;;;5035120;28;20043;-72
2022/04/02 02:50:47;;;;;;;2.08;1.88;;;2.10;99.90;;;;;;5018044;28;20049;-72
2022/04/02 02:53:12;;;;;;;1.95;1.52;;;2.10;99.90;;;;;;5024267;28;20051;-72
2022/04/02 02:55:38;;;;;;;3.25;1.55;;;2.10;99.90;;;;;;5028272;28;20056;-72
2022/04/02 02:58:04;;;;;;;1.70;1.60;;;2.10;99.90;;;;;;5016597;28;20045;-71
2022/04/02 03:00:30;;;;;;;8.18;3.15;;;2.10;99.90;;;;;;5036343;28;20507;-72
2022/04/02 03:02:55;;;;;;;4.38;1.88;;;2.10;99.90;;;;;;5018266;28;20590;-72
2022/04/02 03:05:21;;;;;;;4.80;1.83;;;2.10;99.90;;;;;;5036085;28;20052;-72
2022/04/02 03:07:48;;;;;;;2.55;2.03;;;2.00;99.90;;;;;;5018750;28;20144;-72
2022/04/02 03:10:18;;;;;;;4.93;2.17;;;2.00;99.90;;;;;;5004664;28;20050;-72
2022/04/02 03:12:46;;;;;;;5.55;1.92;;;2.00;99.90;;;;;;5020712;28;20143;-72
2022/04/02 03:15:12;;;;;;;5.80;2.05;;;2.00;99.90;;;;;;5036388;28;20080;-72
2022/04/02 03:17:38;;;;;;;2.33;1.88;;;2.10;99.90;;;;;;5017433;28;20072;-72
2022/04/02 03:20:05;;;;;;;6.05;1.85;;;2.10;99.90;;;;;;5036158;28;20504;-72
2022/04/02 03:22:35;;;;;;;5.82;1.55;;;2.10;99.90;;;;;;5017793;28;20136;-71
2022/04/02 03:25:01;;;;;;;4.88;1.77;;;2.10;99.90;;;;;;5018543;28;20611;-72
2022/04/02 03:27:27;;;;;;;3.60;1.98;;;2.10;99.90;;;;;;4980728;28;20054;-72
2022/04/02 03:29:54;;;;;;;1.85;1.70;;;2.10;99.90;;;;;;5020539;28;20559;-72
2022/04/02 03:32:19;;;;;;;5.32;2.10;;;2.10;99.90;;;;;;5036164;28;20052;-72
2022/04/02 03:34:45;;;;;;;3.53;1.88;;;2.10;99.90;;;;;;5035904;28;20068;-72
2022/04/02 03:37:11;;;;;;;2.53;1.73;;;2.10;99.90;;;;;;5017330;28;20448;-72
2022/04/02 03:39:37;;;;;;;4.57;1.95;;;2.10;99.90;;;;;;5017849;28;20053;-72
2022/04/02 03:42:04;;;;;;;2.92;1.80;;;2.10;99.90;;;;;;5018306;28;20048;-71
2022/04/02 03:44:29;;;;;;;2.88;2.17;;;2.10;99.90;;;;;;5017588;28;20796;-72
2022/04/02 03:47:10;;;;;;;2.83;1.65;;;2.00;99.90;;;;;;5036052;28;20083;-72
2022/04/02 03:49:41;;;;;;;3.85;1.80;;;2.10;99.90;;;;;;5017992;28;20061;-72
2022/04/02 03:52:07;;;;;;;4.20;2.05;;;2.10;99.90;;;;;;5017497;28;20618;-72
2022/04/02 03:54:38;;;;;;;4.72;2.00;;;2.00;99.90;;;;;;5018521;28;20641;-72
2022/04/02 03:57:09;;;;;;;7.32;2.42;;;2.00;99.90;;;;;;5022523;28;20148;-72
2022/04/02 03:59:35;;;;;;;1.95;1.75;;;2.00;99.90;;;;;;4978935;28;20042;-72
2022/04/02 04:02:01;;;;;;;2.80;1.73;;;2.00;99.90;;;;;;4983329;28;20104;-72
2022/04/02 04:04:27;;;;;;;3.35;2.03;;;2.00;99.90;;;;;;5032089;28;20045;-72
2022/04/02 04:06:54;;;;;;;2.55;1.58;;;2.00;99.90;;;;;;5040212;28;20076;-71
2022/04/02 04:09:20;;;;;;;3.40;2.03;;;1.90;99.90;;;;;;5023352;28;20097;-72
2022/04/02 04:11:47;;;;;;;1.60;1.38;;;2.00;99.90;;;;;;4982788;28;20164;-72
2022/04/02 04:14:14;;;;;;;3.65;1.65;;;1.90;99.90;;;;;;5000486;28;20057;-72
2022/04/02 04:16:41;;;;;;;1.92;1.67;;;1.90;99.90;;;;;;5000507;28;20050;-72
2022/04/02 04:19:06;;;;;;;3.22;1.80;;;1.90;99.90;;;;;;5000201;28;20045;-72
2022/04/02 04:21:34;;;;;;;3.65;1.92;;;1.90;99.90;;;;;;4982403;28;20056;-71
2022/04/02 04:24:03;;;;;;;3.28;2.10;;;1.90;99.90;;;;;;5001007;28;20089;-71
2022/04/02 04:26:29;;;;;;;3.10;1.70;;;1.90;99.90;;;;;;4981996;28;20132;-71
2022/04/02 04:28:54;;;;;;;1.58;1.35;;;1.90;99.90;;;;;;4983572;28;20056;-72
2022/04/02 04:31:20;;;;;;;7.90;1.85;;;1.90;99.90;;;;;;4982510;28;20057;-71
2022/04/02 04:33:47;;;;;;;5.38;1.67;;;1.90;99.90;;;;;;4999765;28;20054;-71
2022/04/02 04:36:15;;;;;;;2.75;1.77;;;1.90;99.90;;;;;;4999545;28;20042;-71
2022/04/02 04:38:41;;;;;;;3.63;1.73;;;1.90;99.90;;;;;;5022031;28;20080;-72
2022/04/02 04:41:07;;;;;;;3.55;1.92;;;1.90;99.90;;;;;;5021376;28;20072;-71
2022/04/02 04:43:34;;;;;;;2.35;1.92;;;1.90;99.90;;;;;;5020928;28;20508;-72
2022/04/02 04:45:59;;;;;;;2.60;1.70;;;1.90;99.90;;;;;;5020897;28;20048;-72
2022/04/02 04:48:25;;;;;;;3.20;1.80;;;1.90;99.90;;;;;;5038386;28;20466;-71
2022/04/02 04:50:50;;;;;;;3.85;1.92;;;1.90;99.90;;;;;;5039419;28;20053;-72
2022/04/02 04:53:16;;;;;;;5.10;2.33;;;1.90;99.90;;;;;;5020937;28;20114;-72
2022/04/02 04:55:41;;;;;;;5.43;2.50;;;1.90;99.90;;;;;;5038637;28;20049;-72
2022/04/02 04:58:07;;;;;;;3.20;2.60;;;1.90;99.90;;;;;;4990526;28;20058;-71
2022/04/02 05:00:33;;;;;;;2.03;1.83;;;2.00;99.90;;;;;;4999965;28;20482;-71
2022/04/02 05:02:59;;;;;;;3.08;1.98;;;2.00;99.90;;;;;;5006299;28;20048;-72
2022/04/02 05:05:27;;;;;;;3.40;2.20;;;2.00;99.90;;;;;;5038556;28;20047;-71
2022/04/02 05:07:53;;;;;;;3.80;2.00;;;2.00;99.90;;;;;;5020671;28;20056;-71
2022/04/02 05:10:19;;;;;;;4.20;2.22;;;2.10;99.90;;;;;;4987585;28;20065;-71
2022/04/02 05:12:45;;;;;;;4.22;2.40;;;2.10;99.90;;;;;;5012509;28;20562;-71
2022/04/02 05:15:11;;;;;;;3.35;2.47;;;2.10;99.90;;;;;;5015622;28;20100;-71
2022/04/02 05:17:37;;;;;;;3.50;2.60;;;2.20;99.90;;;;;;4998655;28;20110;-71
2022/04/02 05:20:04;;;;;;;4.25;2.10;;;2.20;99.90;;;;;;5016677;28;20047;-71
2022/04/02 05:22:30;;;;;;;5.25;2.70;;;2.20;99.90;;;;;;5016043;28;20053;-72
2022/04/02 05:24:55;;;;;;;3.95;2.03;;;2.20;99.90;;;;;;4998520;28;20052;-71
2022/04/02 05:27:21;;;;;;;6.03;2.78;;;2.20;99.90;;;;;;5016089;28;20053;-71
2022/04/02 05:29:46;;;;;;;5.65;2.63;;;2.20;99.90;;;;;;5016154;28;20049;-71
2022/04/02 05:32:12;;;;;;;4.50;2.75;;;2.20;99.90;;;;;;4997546;28;20049;-72
2022/04/02 05:34:38;;;;;;;2.75;2.13;;;2.10;99.90;;;;;;5015465;28;20137;-73
2022/04/02 05:37:04;;;;;;;7.32;3.28;;;2.20;99.90;;;;;;5015365;28;20514;-72
2022/04/02 05:39:30;;;;;;;4.65;2.95;;;2.20;99.90;;;;;;5034110;28;20146;-72
2022/04/02 05:41:57;;;;;;;3.70;2.42;;;2.30;99.90;;;;;;5013235;28;20095;-73
2022/04/02 05:44:23;;;;;;;5.30;2.22;;;2.30;99.90;;;;;;5023655;28;20805;-72
2022/04/02 05:46:49;;;;;;;5.35;2.42;;;2.30;99.90;;;;;;5016284;28;20097;-73
2022/04/02 05:49:14;;;;;;;3.92;2.67;;;2.40;99.90;;;;;;5015904;28;20651;-73
2022/04/02 05:51:40;;;;;;;4.53;2.33;;;2.30;99.90;;;;;;4998309;28;20060;-71
2022/04/02 05:54:06;;;;;;;3.95;2.90;;;2.40;99.90;;;;;;5035762;28;20053;-70
2022/04/02 05:56:34;;;;;;;5.50;2.53;;;2.40;99.90;;;;;;5030570;28;20069;-70
2022/04/02 05:59:02;;;;;;;3.58;2.78;;;2.40;99.90;;;;;;4995317;28;20116;-70
2022/04/02 06:01:27;;;;;;;6.47;3.15;;;2.40;99.90;;;;;;4977830;28;20057;-70
2022/04/02 06:03:54;;;;;;;4.43;2.53;;;2.50;99.90;;;;;;5000898;28;20048;-71
2022/04/02 06:06:20;;;;;;;4.45;1.98;;;2.60;99.90;;;;;;5034904;28;20906;-70
2022/04/02 06:08:45;;;;;;;7.72;2.88;;;2.60;99.90;;;;;;5028110;28;20037;-70
2022/04/02 06:11:11;;;;;;;3.70;2.35;;;2.70;99.90;;;;;;4977099;28;20104;-70
2022/04/02 06:13:36;;;;;;;4.45;2.30;;;2.80;99.90;;;;;;4994871;28;20982;-70
2022/04/02 06:16:02;;;;;;;3.35;2.38;;;2.80;99.90;;;;;;4995153;28;20054;-71
2022/04/02 06:18:28;;;;;;;4.32;3.25;;;2.90;99.90;;;;;;4994738;28;20415;-70
2022/04/02 06:20:53;;;;;;;2.83;1.88;;;3.00;99.90;;;;;;4977902;28;20584;-70
2022/04/02 06:23:19;;;;;;;3.55;2.28;;;3.10;99.90;;;;;;4994985;28;20727;-70
2022/04/02 06:25:45;;;;;;;2.83;2.30;;;3.10;99.90;;;;;;4982086;28;20115;-70
2022/04/02 06:28:11;;;;;;;3.38;3.00;;;3.20;99.90;;;;;;4995943;28;20053;-70
2022/04/02 06:30:37;;;;;;;3.28;2.10;;;3.10;99.90;;;;;;5014490;28;20049;-70
2022/04/02 06:33:04;;;;;;;3.10;1.88;;;3.30;99.90;;;;;;4997365;28;20084;-70
2022/04/02 06:35:30;;;;;;;7.10;2.22;;;3.40;99.90;;;;;;5014743;28;20832;-70
2022/04/02 06:37:56;;;;;;;2.92;1.80;;;3.40;99.90;;;;;;5001981;28;20049;-70
2022/04/02 06:40:24;;;;;;;2.60;1.80;;;3.50;99.90;;;;;;5033848;28;20040;-70
2022/04/02 06:42:51;;;;;;;4.85;1.83;;;3.60;99.90;;;;;;5008030;28;20660;-70
2022/04/02 06:45:18;;;;;;;2.38;1.90;;;3.60;99.90;;;;;;5017807;28;20045;-70
2022/04/02 06:47:44;;;;;;;5.22;2.03;;;3.70;99.90;;;;;;4995907;28;20047;-70
2022/04/02 06:50:13;;;;;;;2.78;2.00;;;3.70;99.90;;;;;;5014031;28;20080;-69
2022/04/02 06:52:40;;;;;;;2.30;1.73;;;3.90;99.90;;;;;;5005523;28;20481;-71
2022/04/02 06:55:11;;;;;;;2.75;2.30;;;3.90;99.90;;;;;;5033397;28;20039;-71
2022/04/02 06:58:03;;;;;;;4.15;2.42;;;3.90;99.90;;;;;;5012296;28;20057;-69
2022/04/02 07:00:29;;;;;;;5.10;1.90;;;3.90;99.90;;;;;;4978430;28;20527;-72
2022/04/02 07:02:54;;;;;;;4.10;2.85;;;4.00;99.90;;;;;;5011734;28;20222;-71
2022/04/02 07:05:20;;;;;;;4.10;3.15;;;4.10;99.90;;;;;;4992870;28;20137;-71
2022/04/02 07:07:46;;;;;;;3.40;1.98;;;4.20;99.90;;;;;;5012773;28;20052;-71
2022/04/02 07:10:13;;;;;;;6.28;2.17;;;4.20;99.90;;;;;;4994669;28;20088;-72
2022/04/02 07:12:39;;;;;;;3.65;2.22;;;4.30;99.90;;;;;;5012576;28;20083;-72
2022/04/02 07:15:05;;;;;;;3.72;1.98;;;4.30;99.90;;;;;;5011670;28;20739;-71
2022/04/02 07:17:31;;;;;;;3.80;1.55;;;4.30;99.90;;;;;;5013276;28;20045;-71
2022/04/02 07:19:59;;;;;;;2.97;1.75;;;4.30;99.90;;;;;;5015359;28;20044;-71
2022/04/02 07:22:25;;;;;;;3.42;1.70;;;4.40;99.90;;;;;;4995958;28;20042;-72
2022/04/02 07:24:52;;;;;;;1.83;1.55;;;4.40;99.90;;;;;;4996328;28;20061;-77
2022/04/02 07:27:27;;;;;;;2.03;1.77;;;4.50;99.90;;;;;;5012190;28;20041;-72
2022/04/02 07:29:54;;;;;;;4.00;2.53;;;4.60;99.90;;;;;;4995811;28;20768;-72
2022/04/02 07:32:20;;;;;;;3.30;1.80;;;4.60;99.90;;;;;;5010861;28;20165;-72
2022/04/02 07:34:45;;;;;;;1.58;1.48;;;4.60;99.90;;;;;;5013801;28;20045;-73
2022/04/02 07:37:44;;;;;;;1.88;1.38;;;4.50;99.90;;;;;;5013337;28;20041;-72
2022/04/02 07:40:19;;;;;;;1.30;1.10;;;4.30;99.90;;;;;;5013508;28;20128;-73
2022/04/02 07:43:09;;;;;;;1.85;1.27;;;4.10;99.90;;;;;;4994387;28;20084;-72
2022/04/02 07:45:47;;;;;;;2.20;1.55;;;4.00;99.90;;;;;;5013479;28;21477;-72
2022/04/02 07:48:16;;;;;;;2.47;1.98;;;3.90;99.90;;;;;;4995956;28;20047;-71
2022/04/02 07:50:46;;;;;;;4.95;1.77;;;3.90;99.90;;;;;;5010439;28;20053;-71
2022/04/02 07:53:26;;;;;;;2.63;1.50;;;3.90;99.90;;;;;;4996659;28;20100;-72
2022/04/02 07:56:00;;;;;;;2.58;1.52;;;4.00;99.90;;;;;;5012895;28;20050;-72
2022/04/02 07:58:32;;;;;;;3.00;1.65;;;4.00;99.90;;;;;;5012086;28;20045;-72
2022/04/02 08:01:01;;;;;;;5.28;1.70;;;3.90;99.90;;;;;;5013323;28;20149;-72
2022/04/02 08:03:29;;;;;;;1.98;1.40;;;4.10;99.90;;;;;;5013982;28;20403;-73
2022/04/02 08:05:55;;;;;;;2.50;1.80;;;4.40;99.90;;;;;;4995344;28;20084;-72
2022/04/02 08:08:24;;;;;;;4.20;1.67;;;4.70;99.90;;;;;;4995902;28;20544;-72
2022/04/02 08:10:52;;;;;;;2.95;1.70;;;4.90;99.90;;;;;;5013498;28;20104;-73
2022/04/02 08:13:19;;;;;;;2.10;1.20;;;5.10;99.90;;;;;;4995475;28;20115;-73
2022/04/02 08:15:45;;;;;;;3.47;1.50;;;5.60;99.90;;;;;;4995669;28;20128;-73
2022/04/02 08:18:13;;;;;;;1.63;1.52;;;5.70;99.90;;;;;;5012281;28;20046;-72
2022/04/02 08:20:38;;;;;;;3.92;1.98;;;5.60;99.90;;;;;;5012742;28;20077;-73
2022/04/02 08:23:04;;;;;;;1.65;1.55;;;5.80;99.90;;;;;;4995743;28;20144;-73
2022/04/02 08:25:30;;;;;;;2.35;1.77;;;5.70;99.90;;;;;;4995915;28;20058;-73
2022/04/02 08:28:07;;;;;;;1.67;1.30;;;5.60;99.90;;;;;;5016311;28;20129;-73
2022/04/02 08:30:34;;;;;;;4.90;1.85;;;5.80;99.90;;;;;;4998949;28;20584;-72
2022/04/02 08:33:15;;;;;;;1.50;1.40;;;6.10;99.90;;;;;;4998170;28;20404;-72
2022/04/02 08:36:08;;;;;;;2.50;1.42;;;6.20;99.90;;;;;;4998584;28;20415;-73
2022/04/02 08:39:00;;;;;;;4.10;1.92;;;5.90;99.90;;;;;;5008618;28;20695;-73
2022/04/02 08:42:00;;;;;;;4.15;1.48;;;5.80;99.90;;;;;;5035067;28;20507;-73
2022/04/02 08:45:03;;;;;;;2.72;1.85;;;5.50;99.90;;;;;;5035730;28;20091;-74
2022/04/02 08:47:29;;;;;;;3.35;1.50;;;5.30;99.90;;;;;;4999474;28;20094;-73
2022/04/02 08:50:10;;;;;;;3.70;1.25;;;5.10;99.90;;;;;;5001203;28;20148;-73
2022/04/02 08:53:14;;;;;;;2.60;1.33;;;5.10;99.90;;;;;;5010202;28;20081;-73
2022/04/02 08:56:10;;;;;;;3.05;1.33;;;5.00;99.90;;;;;;5016254;28;20045;-72
2022/04/02 08:58:56;;;;;;;4.65;1.50;;;4.90;99.00;;;;;;4986553;28;20065;-74
2022/04/02 09:01:28;;;;;;;2.13;1.27;;;4.90;99.90;;;;;;4998800;28;20139;-73
2022/04/02 09:04:31;;;;;;;4.60;1.80;;;4.90;99.90;;;;;;5009338;28;20060;-73
2022/04/02 09:07:25;;;;;;;2.40;1.00;;;4.90;99.90;;;;;;5000176;28;20457;-73
2022/04/02 09:10:11;;;;;;;3.33;1.40;;;4.70;99.50;;;;;;5016774;28;20159;-73
2022/04/02 09:13:04;;;;;;;3.97;3.10;;;4.70;99.00;;;;;;5015792;28;20064;-72
2022/04/02 09:16:04;;;;;;;4.38;1.00;;;4.60;99.30;;;;;;4998732;28;20061;-71
2022/04/02 09:19:09;;;;;;;0.98;0.98;;;4.60;98.60;;;;;;5016228;28;20056;-70
2022/04/02 09:22:01;;;;;;;2.38;1.73;;;4.60;99.50;;;;;;5016176;28;20172;-71
2022/04/02 09:24:50;;;;;;;2.55;1.77;;;4.60;98.80;;;;;;5000505;28;20461;-71
2022/04/02 09:27:43;;;;;;;3.05;1.65;;;4.60;99.40;;;;;;5018786;28;20103;-70
2022/04/02 09:30:30;;;;;;;1.73;1.30;;;4.60;99.50;;;;;;5000457;28;20052;-71
2022/04/02 09:33:01;;;;;;;1.02;0.98;;;4.60;99.70;;;;;;5001461;28;20163;-71
2022/04/02 09:35:54;;;;;;;4.40;1.25;;;4.60;99.90;;;;;;5017619;28;20405;-72
2022/04/02 09:38:47;;;;;;;1.67;1.42;;;4.50;99.90;;;;;;5008876;28;20599;-71
2022/04/02 09:41:16;;;;;;;1.98;1.48;;;4.60;99.90;;;;;;5038188;28;20049;-72
2022/04/02 09:44:11;;;;;;;1.77;1.42;;;4.70;99.90;;;;;;5019624;28;20144;-72
2022/04/02 09:47:00;;;;;;;3.38;1.48;;;4.90;99.90;;;;;;5038215;28;20076;-71
2022/04/02 09:49:48;;;;;;;2.17;1.52;;;5.60;99.90;;;;;;5001986;28;20049;-70
2022/04/02 09:52:21;;;;;;;1.50;1.40;;;6.00;99.90;;;;;;5005966;28;20048;-70
2022/04/02 09:55:13;;;;;;;0.88;0.88;;;6.20;98.80;;;;;;5024503;28;20053;-70
2022/04/02 09:58:12;;;;;;;1.92;0.82;;;6.10;97.00;;;;;;5017069;28;20057;-70
2022/04/02 10:00:44;;;;;;;2.28;1.17;;;5.90;97.60;;;;;;5018490;28;20165;-69
2022/04/02 10:03:18;;;;;;;0.77;0.77;;;5.80;95.70;;;;;;5019179;28;20048;-70
2022/04/02 10:06:07;;;;;;;1.77;1.15;;;5.50;95.90;;;;;;5015731;28;20144;-70
2022/04/02 10:09:03;;;;;;;1.00;0.90;;;5.20;98.50;;;;;;4999640;28;20052;-70
2022/04/02 10:11:30;;;;;;;6.03;3.17;;;5.10;99.90;;;;;;4998584;28;20065;-70
2022/04/02 10:13:59;;;;;;;3.90;1.45;;;5.00;99.90;;;;;;5018266;28;20046;-70
2022/04/02 10:16:25;;;;;;;7.78;1.63;;;5.20;99.90;;;;;;5000445;28;20982;-70
2022/04/02 10:18:56;;;;;;;8.00;1.65;;;5.40;99.90;;;;;;5017826;28;20053;-70
2022/04/02 10:21:22;;;;;;;1.38;0.88;;;5.70;99.90;;;;;;5000071;28;20057;-69
2022/04/02 10:24:11;;;;;;;1.33;1.10;;;6.70;99.90;;;;;;5000432;28;20682;-71
2022/04/02 10:26:39;;;;;;;2.25;1.30;;;7.00;97.70;;;;;;5028222;28;20664;-70
2022/04/02 10:29:12;;;;;;;2.38;0.80;;;6.60;98.10;;;;;;5036852;28;20047;-70
2022/04/02 10:31:39;;;;;;;1.65;1.20;;;6.60;98.90;;;;;;5036131;28;20056;-70
2022/04/02 10:34:10;;;;;;;1.33;1.20;;;6.60;99.90;;;;;;5037730;28;20570;-70
2022/04/02 10:36:50;;;;;;;1.95;1.30;;;6.50;97.30;;;;;;5037818;28;20071;-70
2022/04/02 10:39:18;;;;;;;3.75;1.75;;;7.30;94.90;;;;;;5018742;28;20049;-70
2022/04/02 10:41:44;;;;;;;4.95;1.40;;;7.50;94.50;;;;;;5019644;28;20190;-70
2022/04/02 10:44:19;;;;;;;6.03;1.15;;;7.30;94.20;;;;;;5037612;28;20055;-70
2022/04/02 10:46:48;;;;;;;8.48;1.30;;;6.30;92.80;;;;;;5018338;28;20056;-69
2022/04/02 10:49:22;;;;;;;1.67;1.13;;;5.90;92.90;;;;;;5036875;28;20095;-70
2022/04/02 10:51:53;;;;;;;2.25;1.05;;;5.50;93.90;;;;;;5036214;28;20041;-70
2022/04/02 10:54:26;;;;;;;2.08;1.20;;;5.30;95.10;;;;;;5036096;28;20124;-70
2022/04/02 10:56:55;;;;;;;1.50;1.15;;;5.20;93.90;;;;;;5027012;28;20052;-70
2022/04/02 10:59:21;;;;;;;3.38;2.33;;;5.10;96.50;;;;;;4997032;28;20042;-70
2022/04/02 11:01:52;;;;;;;1.85;1.63;;;5.10;97.00;;;;;;4978395;28;20049;-70
2022/04/02 11:04:49;;;;;;;1.85;1.30;;;5.10;96.30;;;;;;5026755;28;20484;-70
2022/04/02 11:07:29;;;;;;;1.48;1.38;;;5.20;96.30;;;;;;5036238;28;20098;-69
2022/04/02 11:09:59;;;;;;;6.80;1.55;;;5.30;96.90;;;;;;5004021;28;20054;-70
2022/04/02 11:12:41;;;;;;;2.13;1.20;;;5.40;95.60;;;;;;4997385;28;20156;-75
2022/04/02 11:15:09;;;;;;;4.20;1.17;;;5.50;96.60;;;;;;4996998;28;20053;-70
2022/04/02 11:17:43;;;;;;;2.90;2.00;;;5.30;97.00;;;;;;5014546;28;20446;-70
2022/04/02 11:20:13;;;;;;;2.08;1.83;;;5.20;96.10;;;;;;5013285;28;20088;-70
2022/04/02 11:22:51;;;;;;;2.38;1.98;;;5.20;96.00;;;;;;4993228;28;20057;-70
2022/04/02 11:25:25;;;;;;;1.38;1.00;;;5.30;95.70;;;;;;5011848;28;20046;-70
2022/04/02 11:27:56;;;;;;;0.98;0.90;;;5.50;95.60;;;;;;4996072;28;20111;-70
2022/04/02 11:30:28;;;;;;;5.47;1.48;;;5.80;96.20;;;;;;4995364;28;20092;-71
2022/04/02 11:33:06;;;;;;;1.52;0.88;;;6.00;95.00;;;;;;5013284;28;20124;-70
2022/04/02 11:35:40;;;;;;;1.10;1.00;;;5.90;95.50;;;;;;5011047;28;20030;-70
2022/04/02 11:38:21;;;;;;;2.20;0.90;;;5.80;93.10;;;;;;5013067;28;20655;-70
2022/04/02 11:41:11;;;;;;;1.08;0.90;;;5.80;92.90;;;;;;5011303;28;20080;-70
2022/04/02 11:43:45;;;;;;;2.08;1.48;;;5.90;92.70;;;;;;5014965;28;20890;-70
2022/04/02 11:46:13;;;;;;;3.28;1.30;;;5.80;93.30;;;;;;4997564;28;20064;-70
2022/04/02 11:48:52;;;;;;;2.25;1.30;;;5.90;94.10;;;;;;5015186;28;20122;-69
2022/04/02 11:51:30;;;;;;;2.92;1.85;;;6.10;95.10;;;;;;5015146;28;20057;-70
2022/04/02 11:54:10;;;;;;;2.25;0.95;;;6.10;95.40;;;;;;4978681;28;20081;-72
2022/04/02 11:56:43;;;;;;;4.15;1.63;;;6.10;94.90;;;;;;4977624;28;20061;-70
2022/04/02 11:59:15;;;;;;;2.58;1.35;;;6.00;94.10;;;;;;4995724;28;20507;-70
2022/04/02 12:01:49;;;;;;;3.47;1.20;;;5.80;92.10;;;;;;5013579;28;20053;-69
2022/04/02 12:04:17;;;;;;;2.70;2.08;;;5.60;90.50;;;;;;5026356;28;20295;-69
2022/04/02 12:06:45;;;;;;;1.27;1.17;;;5.80;91.70;;;;;;5032574;28;20945;-69
2022/04/02 12:09:22;;;;;;;1.63;1.13;;;5.90;89.60;;;;;;5001118;28;20097;-70
2022/04/02 12:11:58;;;;;;;1.08;0.98;;;6.20;87.70;;;;;;4993162;28;20057;-70
2022/04/02 12:14:32;;;;;;;1.23;1.08;;;6.40;90.00;;;;;;4993006;28;20050;-70
2022/04/02 12:17:06;;;;;;;1.25;0.88;;;6.40;86.00;;;;;;4993366;28;20199;-70
2022/04/02 12:19:46;;;;;;;;;;;6.40;80.50;;;;;;4993606;28;20637;-70
2022/04/02 12:22:31;;;;;;;0.70;0.70;;;6.40;80.60;;;;;;4978838;28;19963;-69
2022/04/02 12:25:01;;;;;;;2.25;0.90;;;6.50;83.30;;;;;;4997608;28;20038;-69
2022/04/02 12:27:38;;;;;;;2.50;1.00;;;6.70;83.20;;;;;;5015918;28;20087;-70
2022/04/02 12:30:07;;;;;;;0.90;0.90;;;6.90;84.10;;;;;;5036614;28;20087;-70
2022/04/02 12:32:38;;;;;;;1.20;1.10;;;6.90;85.80;;;;;;5035495;28;20060;-70
2022/04/02 12:35:25;;;;;;;0.90;0.90;;;6.80;78.60;;;;;;5018817;28;20045;-70
2022/04/02 12:37:56;;;;;;;0.80;0.80;;;6.90;83.80;;;;;;5036919;28;20056;-70
2022/04/02 12:40:27;;;;;;;1.92;1.70;;;7.00;77.80;;;;;;5036806;28;20049;-70
2022/04/02 12:43:00;;;;;;;2.00;1.10;;;6.80;76.90;;;;;;5037348;28;20045;-69
2022/04/02 12:45:28;;;;;;;1.83;1.30;;;6.90;81.60;;;;;;5036120;28;20052;-70
2022/04/02 12:48:03;;;;;;;1.40;1.30;;;7.10;83.30;;;;;;5018415;28;20510;-70
2022/04/02 12:50:34;;;;;;;5.78;1.90;;;7.10;83.80;;;;;;5017904;28;20049;-70
2022/04/02 12:53:00;;;;;;;1.60;1.33;;;6.90;85.40;;;;;;5035546;28;20056;-70
2022/04/02 12:55:28;;;;;;;2.08;1.85;;;6.90;89.10;;;;;;5036315;28;20045;-70
2022/04/02 12:58:12;;;;;;;3.88;1.65;;;6.90;87.60;;;;;;5009770;28;20038;-69
2022/04/02 13:00:44;;;;;;;1.15;1.05;;;6.80;86.00;;;;;;4978390;28;20046;-69
2022/04/02 13:03:21;;;;;;;2.55;1.10;;;6.60;86.10;;;;;;5006935;28;20098;-70
2022/04/02 13:05:48;;;;;;;5.13;3.03;;;6.50;87.30;;;;;;5036021;28;20718;-69
2022/04/02 13:08:17;;;;;;;1.27;1.20;;;6.40;81.60;;;;;;5035231;28;20049;-69
2022/04/02 13:10:45;;;;;;;1.33;1.20;;;6.30;79.70;;;;;;4996022;28;20462;-69
2022/04/02 13:13:14;;;;;;;3.85;1.70;;;6.30;83.40;;;;;;4978722;28;20653;-68
2022/04/02 13:15:49;;;;;;;3.42;1.42;;;6.30;85.50;;;;;;4995538;28;20889;-69
2022/04/02 13:21:08;;;;;;;2.33;1.63;;;6.30;89.30;;;;;;5033318;28;20057;-69
2022/04/02 13:24:15;;;;;;;1.23;1.00;;;6.50;90.30;;;;;;5017374;28;20040;-68